Time;durP1;ratioP1;P1;durP2;ratioP2;P2;SDS_P1;SDS_P2;PMS_P1;PMS_P2;Temp;Humidity;BMP_temperature;BMP_pressure;BME280_temperature;BME280_humidity;BME280_pressure;Samples;Min_cycle;Max_cycle;Signal;HPM_P1;HPM_P2
2024/01/06 00:02:01;;;;;;;0.00;0.00;;;;;;;4.87;100.00;97814.97;5055945;28;20215;-53
2024/01/06 00:04:48;;;;;;;0.00;0.00;;;;;;;4.88;100.00;97806.16;5055693;28;20188;-53
2024/01/06 00:07:35;;;;;;;0.10;0.10;;;;;;;5.11;100.00;97818.63;5055601;28;20208;-53
2024/01/06 00:10:22;;;;;;;0.00;0.00;;;;;;;5.07;100.00;97816.31;5054753;28;20192;-54
2024/01/06 00:13:11;;;;;;;0.00;0.00;;;;;;;5.24;100.00;97825.75;5055672;28;20191;-53
2024/01/06 00:15:58;;;;;;;0.00;0.00;;;;;;;5.19;100.00;97823.41;5055593;28;20314;-53
2024/01/06 00:18:45;;;;;;;0.00;0.00;;;;;;;5.35;100.00;97823.28;5055453;28;20219;-53
2024/01/06 00:21:32;;;;;;;0.00;0.00;;;;;;;5.50;100.00;97824.94;5055615;28;20211;-52
2024/01/06 00:24:19;;;;;;;0.10;0.10;;;;;;;5.49;100.00;97827.63;5055391;28;20385;-53
2024/01/06 00:27:06;;;;;;;0.00;0.00;;;;;;;5.49;100.00;97825.84;5054403;28;20191;-53
2024/01/06 00:29:54;;;;;;;0.00;0.00;;;;;;;5.32;100.00;97828.75;5055393;28;20196;-53
2024/01/06 00:32:41;;;;;;;0.00;0.00;;;;;;;5.19;100.00;97826.03;5055203;28;20281;-53
2024/01/06 00:35:31;;;;;;;0.00;0.00;;;;;;;5.26;100.00;97837.00;5055228;28;20736;-53
2024/01/06 00:38:19;;;;;;;0.10;0.10;;;;;;;5.46;100.00;97844.44;5055176;28;20208;-53
2024/01/06 00:41:08;;;;;;;0.00;0.00;;;;;;;5.42;100.00;97841.16;5053941;28;20316;-54
2024/01/06 00:43:56;;;;;;;0.00;0.00;;;;;;;5.40;100.00;97844.81;5053944;28;20239;-54
2024/01/06 00:46:44;;;;;;;0.00;0.00;;;;;;;5.42;100.00;97846.41;5039899;28;20192;-53
2024/01/06 00:49:31;;;;;;;0.10;0.10;;;;;;;5.50;100.00;97855.56;5035180;28;20280;-53
2024/01/06 00:52:18;;;;;;;0.00;0.00;;;;;;;5.46;100.00;97854.94;5034995;28;20204;-53
2024/01/06 00:55:05;;;;;;;0.00;0.00;;;;;;;5.44;100.00;97857.66;5034420;28;20197;-53
2024/01/06 00:57:52;;;;;;;0.10;0.10;;;;;;;5.35;100.00;97865.28;5021876;28;20363;-53
2024/01/06 01:00:40;;;;;;;0.10;0.10;;;;;;;5.41;100.00;97878.88;5034479;28;20217;-53
2024/01/06 01:03:29;;;;;;;0.00;0.00;;;;;;;5.61;100.00;97874.97;5034599;28;20267;-54
2024/01/06 01:06:16;;;;;;;0.00;0.00;;;;;;;5.67;100.00;97871.91;5051790;28;20215;-53
2024/01/06 01:09:04;;;;;;;0.00;0.00;;;;;;;5.87;100.00;97872.41;5053541;28;20238;-54
2024/01/06 01:11:50;;;;;;;0.10;0.10;;;;;;;6.00;100.00;97868.09;5052648;28;20312;-54
2024/01/06 01:14:37;;;;;;;0.00;0.00;;;;;;;5.95;100.00;97867.53;5034466;28;20196;-53
2024/01/06 01:17:24;;;;;;;0.07;0.07;;;;;;;5.89;100.00;97868.75;5045762;28;20278;-53
2024/01/06 01:20:13;;;;;;;0.00;0.00;;;;;;;5.75;100.00;97871.44;5053865;28;20216;-52
2024/01/06 01:22:59;;;;;;;0.00;0.00;;;;;;;5.74;100.00;97880.25;5054003;28;20259;-54
2024/01/06 01:25:48;;;;;;;0.10;0.10;;;;;;;6.11;100.00;97875.25;5052898;28;20196;-53
2024/01/06 01:28:37;;;;;;;0.00;0.00;;;;;;;5.97;100.00;97874.34;5044574;28;20242;-53
2024/01/06 01:31:26;;;;;;;0.10;0.10;;;;;;;5.71;100.00;97883.09;5052293;28;20200;-54
2024/01/06 01:34:14;;;;;;;0.00;0.00;;;;;;;5.88;100.00;97876.72;5053984;28;20212;-54
2024/01/06 01:37:03;;;;;;;0.10;0.10;;;;;;;5.79;100.00;97890.44;5053155;28;20323;-54
2024/01/06 01:39:50;;;;;;;0.10;0.10;;;;;;;5.72;100.00;97876.91;5053838;28;20261;-54
2024/01/06 01:42:37;;;;;;;0.00;0.00;;;;;;;5.53;100.00;97884.28;5053788;28;20196;-53
2024/01/06 01:45:24;;;;;;;0.00;0.00;;;;;;;5.63;100.00;97883.59;5053644;28;20196;-53
2024/01/06 01:48:11;;;;;;;0.00;0.00;;;;;;;5.69;100.00;97887.56;5044852;28;20205;-53
2024/01/06 01:50:58;;;;;;;0.00;0.00;;;;;;;5.62;100.00;97884.53;5033821;28;20196;-54
2024/01/06 01:53:46;;;;;;;0.07;0.07;;;;;;;5.78;100.00;97896.66;5033587;28;20275;-54
2024/01/06 01:56:35;;;;;;;0.00;0.00;;;;;;;5.65;100.00;97886.94;5032579;28;20193;-54
2024/01/06 01:59:22;;;;;;;0.10;0.10;;;;;;;5.67;100.00;97895.56;5036707;28;20208;-53
2024/01/06 02:02:10;;;;;;;0.00;0.00;;;;;;;5.56;100.00;97900.66;5053363;28;20299;-54
2024/01/06 02:04:57;;;;;;;0.00;0.00;;;;;;;5.56;100.00;97905.91;5053531;28;20207;-53
2024/01/06 02:07:44;;;;;;;0.00;0.00;;;;;;;5.66;100.00;97903.53;5053518;28;20204;-53
2024/01/06 02:10:34;;;;;;;0.10;0.10;;;;;;;5.87;100.00;97890.78;5052324;28;20188;-53
2024/01/06 02:13:20;;;;;;;0.00;0.00;;;;;;;5.72;100.00;97906.63;5053217;28;20331;-53
2024/01/06 02:16:10;;;;;;;0.10;0.10;;;;;;;5.77;100.00;97905.47;5053264;28;20196;-54
2024/01/06 02:18:58;;;;;;;0.00;0.00;;;;;;;5.83;100.00;97911.19;5038386;28;20306;-54
2024/01/06 02:21:49;;;;;;;0.00;0.00;;;;;;;5.83;100.00;97915.59;5033453;28;20236;-53
2024/01/06 02:24:36;;;;;;;0.10;0.10;;;;;;;5.71;100.00;97918.06;5033250;28;20248;-53
2024/01/06 02:27:23;;;;;;;0.00;0.00;;;;;;;5.81;100.00;97918.31;5018748;28;20216;-53
2024/01/06 02:30:11;;;;;;;0.10;0.10;;;;;;;5.55;100.00;97916.53;5053045;28;20243;-53
2024/01/06 02:32:58;;;;;;;0.10;0.10;;;;;;;5.48;100.00;97916.06;5052584;28;20199;-53
2024/01/06 02:35:44;;;;;;;0.00;0.00;;;;;;;5.69;100.00;97917.34;5052596;28;20264;-53
2024/01/06 02:38:33;;;;;;;0.00;0.00;;;;;;;5.51;100.00;97931.66;5043956;28;20203;-54
2024/01/06 02:41:20;;;;;;;0.10;0.10;;;;;;;5.37;100.00;97937.75;5051628;28;20220;-53
2024/01/06 02:44:06;;;;;;;0.00;0.00;;;;;;;5.39;100.00;97940.28;5052796;28;20204;-53
2024/01/06 02:46:56;;;;;;;0.10;0.10;;;;;;;4.94;100.00;97934.31;5052402;28;20239;-53
2024/01/06 02:49:43;;;;;;;0.10;0.10;;;;;;;4.92;100.00;97937.94;5033048;28;20285;-53
2024/01/06 02:52:30;;;;;;;0.00;0.00;;;;;;;5.02;100.00;97945.19;5047420;28;20195;-53
2024/01/06 02:55:18;;;;;;;0.07;0.07;;;;;;;4.98;100.00;97943.69;5051875;28;20196;-53
2024/01/06 02:58:06;;;;;;;0.00;0.00;;;;;;;4.72;100.00;97950.47;5052389;28;20220;-53
2024/01/06 03:00:53;;;;;;;0.10;0.10;;;;;;;4.87;100.00;97952.19;5052624;28;20224;-53
2024/01/06 03:03:40;;;;;;;0.10;0.10;;;;;;;4.85;100.00;97953.25;5052807;28;20220;-53
2024/01/06 03:06:29;;;;;;;0.10;0.10;;;;;;;4.82;100.00;97961.28;5053238;28;20274;-53
2024/01/06 03:09:18;;;;;;;0.00;0.00;;;;;;;5.05;100.00;97963.38;5053732;28;20204;-53
2024/01/06 03:12:07;;;;;;;0.10;0.10;;;;;;;5.07;100.00;97969.34;5040622;28;20192;-53
2024/01/06 03:14:54;;;;;;;0.00;0.00;;;;;;;5.17;100.00;97973.09;5056628;28;20326;-53
2024/01/06 03:17:44;;;;;;;0.00;0.00;;;;;;;5.26;100.00;97979.56;5053219;28;20192;-54
2024/01/06 03:20:32;;;;;;;0.10;0.10;;;;;;;5.82;100.00;97980.44;5036547;28;20283;-54
2024/01/06 03:23:19;;;;;;;0.00;0.00;;;;;;;5.58;100.00;97977.56;5036415;28;20201;-53
2024/01/06 03:26:07;;;;;;;0.00;0.00;;;;;;;5.78;100.00;97971.06;5035558;28;20197;-54
2024/01/06 03:28:55;;;;;;;0.00;0.00;;;;;;;5.78;100.00;97972.84;5049760;28;20196;-53
2024/01/06 03:31:43;;;;;;;0.00;0.00;;;;;;;5.60;100.00;97970.47;5056291;28;20196;-53
2024/01/06 03:34:30;;;;;;;0.00;0.00;;;;;;;5.65;100.00;97964.91;5036525;28;20216;-54
2024/01/06 03:37:17;;;;;;;0.03;0.03;;;;;;;5.63;100.00;97975.50;5036480;28;20201;-53
2024/01/06 03:40:04;;;;;;;0.00;0.00;;;;;;;5.50;100.00;97971.09;5045755;28;20200;-53
2024/01/06 03:42:51;;;;;;;0.00;0.00;;;;;;;5.52;100.00;97977.97;5056321;28;20199;-54
2024/01/06 03:45:40;;;;;;;0.00;0.00;;;;;;;5.53;100.00;97974.41;5056193;28;20258;-54
2024/01/06 03:48:28;;;;;;;0.00;0.00;;;;;;;5.47;100.00;97982.66;5055841;28;20675;-53
2024/01/06 03:51:17;;;;;;;0.00;0.00;;;;;;;5.37;100.00;97973.66;5040900;28;20356;-53
2024/01/06 03:54:04;;;;;;;0.00;0.00;;;;;;;5.63;100.00;97972.88;5056006;28;20208;-53
2024/01/06 03:56:52;;;;;;;0.00;0.00;;;;;;;5.32;100.00;97979.22;5054680;28;20259;-54
2024/01/06 03:59:39;;;;;;;0.00;0.00;;;;;;;5.49;100.00;97980.75;5036896;28;20201;-54
2024/01/06 04:02:27;;;;;;;0.00;0.00;;;;;;;5.58;100.00;97981.97;5035520;28;20220;-53
2024/01/06 04:05:14;;;;;;;0.00;0.00;;;;;;;5.42;100.00;97976.84;5035772;28;20197;-54
2024/01/06 04:08:01;;;;;;;0.00;0.00;;;;;;;5.57;100.00;97985.53;5041160;28;20311;-54
2024/01/06 04:10:49;;;;;;;0.00;0.00;;;;;;;5.45;100.00;97987.16;5054576;28;20196;-54
2024/01/06 04:13:37;;;;;;;0.10;0.10;;;;;;;5.45;100.00;97985.38;5055422;28;20192;-53
2024/01/06 04:16:28;;;;;;;0.10;0.10;;;;;;;5.35;100.00;97986.88;5055303;28;20256;-54
2024/01/06 04:19:16;;;;;;;0.00;0.00;;;;;;;5.43;100.00;97992.50;5055037;28;20666;-53
2024/01/06 04:22:03;;;;;;;0.00;0.00;;;;;;;5.59;100.00;97996.78;5055200;28;20369;-54
2024/01/06 04:24:50;;;;;;;0.00;0.00;;;;;;;5.86;100.00;97991.59;5055322;28;20199;-53
2024/01/06 04:27:37;;;;;;;0.00;0.00;;;;;;;5.66;100.00;97998.09;5055246;28;20207;-54
2024/01/06 04:30:25;;;;;;;0.10;0.10;;;;;;;5.61;100.00;97990.53;5055348;28;20204;-53
2024/01/06 04:33:14;;;;;;;0.00;0.00;;;;;;;5.54;100.00;97997.09;5055395;28;20188;-54
2024/01/06 04:36:02;;;;;;;0.00;0.00;;;;;;;5.68;100.00;97998.84;5054897;28;20212;-54
2024/01/06 04:38:52;;;;;;;0.00;0.00;;;;;;;5.79;100.00;98000.78;5055148;28;20259;-53
2024/01/06 04:41:40;;;;;;;0.00;0.00;;;;;;;5.79;100.00;98003.41;5053848;28;20216;-54
2024/01/06 04:44:29;;;;;;;0.00;0.00;;;;;;;5.63;100.00;97998.31;5055142;28;20270;-54
2024/01/06 04:47:15;;;;;;;0.00;0.00;;;;;;;5.90;100.00;97999.22;5055029;28;20208;-53
2024/01/06 04:50:02;;;;;;;0.00;0.00;;;;;;;5.79;100.00;97996.41;5055016;28;20193;-53
2024/01/06 04:52:51;;;;;;;0.00;0.00;;;;;;;5.79;100.00;97999.03;5054899;28;20196;-54
2024/01/06 04:55:38;;;;;;;0.00;0.00;;;;;;;5.62;100.00;97991.38;5053688;28;20195;-54
2024/01/06 04:58:25;;;;;;;0.00;0.00;;;;;;;5.89;100.00;97991.41;5054515;28;20224;-53
2024/01/06 05:01:13;;;;;;;0.10;0.10;;;;;;;5.76;100.00;98007.09;5054688;28;20278;-53
2024/01/06 05:04:01;;;;;;;0.00;0.00;;;;;;;5.78;100.00;98004.34;5054656;28;20693;-53
2024/01/06 05:06:49;;;;;;;0.00;0.00;;;;;;;5.75;100.00;98005.41;5054623;28;20200;-54
2024/01/06 05:09:37;;;;;;;0.00;0.00;;;;;;;5.94;100.00;97997.22;5054384;28;20196;-54
2024/01/06 05:12:24;;;;;;;0.00;0.00;;;;;;;5.69;100.00;97996.16;5054000;28;20356;-54
2024/01/06 05:15:11;;;;;;;0.10;0.10;;;;;;;5.64;100.00;97994.72;5054179;28;20336;-54
2024/01/06 05:17:58;;;;;;;0.00;0.00;;;;;;;5.64;100.00;97992.94;5053899;28;20695;-54
2024/01/06 05:20:45;;;;;;;0.00;0.00;;;;;;;5.66;100.00;97998.94;5045105;28;20212;-53
2024/01/06 05:23:32;;;;;;;0.00;0.00;;;;;;;5.52;100.00;97995.50;5054076;28;20192;-53
2024/01/06 05:26:20;;;;;;;0.10;0.10;;;;;;;5.90;100.00;98000.97;5052870;28;20192;-54
2024/01/06 05:29:08;;;;;;;0.07;0.07;;;;;;;5.72;100.00;98009.06;5053601;28;20200;-53
2024/01/06 05:31:55;;;;;;;0.00;0.00;;;;;;;5.83;100.00;98010.19;5054104;28;20262;-53
2024/01/06 05:34:45;;;;;;;0.00;0.00;;;;;;;5.79;100.00;98006.03;5053829;28;20292;-53
2024/01/06 05:37:33;;;;;;;0.00;0.00;;;;;;;5.63;100.00;98012.28;5053202;28;20664;-53
2024/01/06 05:40:19;;;;;;;0.00;0.00;;;;;;;5.56;100.00;98012.75;5052657;28;20196;-54
2024/01/06 05:43:08;;;;;;;0.00;0.00;;;;;;;5.57;100.00;98019.69;5053412;28;20253;-54
2024/01/06 05:45:55;;;;;;;0.00;0.00;;;;;;;5.64;100.00;98019.22;5053845;28;20224;-54
2024/01/06 05:48:41;;;;;;;0.00;0.00;;;;;;;5.60;100.00;98019.50;5053657;28;20188;-54
2024/01/06 05:51:28;;;;;;;0.00;0.00;;;;;;;5.47;100.00;98019.41;5053144;28;20227;-54
2024/01/06 05:54:15;;;;;;;0.00;0.00;;;;;;;5.87;100.00;98025.63;5053654;28;20208;-54
2024/01/06 05:57:02;;;;;;;0.00;0.00;;;;;;;5.83;100.00;98031.19;5052204;28;20232;-53
2024/01/06 05:59:50;;;;;;;0.00;0.00;;;;;;;5.74;100.00;98032.63;5053276;28;20204;-53
2024/01/06 06:02:37;;;;;;;0.00;0.00;;;;;;;5.84;100.00;98040.75;5053436;28;20220;-53
2024/01/06 06:05:24;;;;;;;0.03;0.03;;;;;;;6.28;100.00;98024.84;5053550;28;20258;-53
2024/01/06 06:08:12;;;;;;;0.00;0.00;;;;;;;6.10;100.00;98026.00;5053208;28;20207;-53
2024/01/06 06:11:01;;;;;;;0.00;0.00;;;;;;;5.87;100.00;98035.31;5052279;28;20210;-54
2024/01/06 06:13:48;;;;;;;0.10;0.10;;;;;;;5.84;100.00;98027.63;5053451;28;20192;-54
2024/01/06 06:16:37;;;;;;;0.00;0.00;;;;;;;5.96;100.00;98035.59;5053174;28;20199;-53
2024/01/06 06:19:24;;;;;;;0.00;0.00;;;;;;;6.01;100.00;98044.06;5053246;28;20777;-53
2024/01/06 06:22:11;;;;;;;0.00;0.00;;;;;;;5.94;100.00;98050.63;5053231;28;20234;-53
2024/01/06 06:25:02;;;;;;;0.00;0.00;;;;;;;5.89;100.00;98055.31;5052279;28;20267;-53
2024/01/06 06:27:50;;;;;;;0.00;0.00;;;;;;;5.74;100.00;98054.47;5037957;28;20244;-53
2024/01/06 06:30:37;;;;;;;0.00;0.00;;;;;;;5.75;100.00;98064.03;5066234;28;20258;-53
2024/01/06 06:33:26;;;;;;;0.00;0.00;;;;;;;5.74;100.00;98062.34;5052941;28;20666;-53
2024/01/06 06:36:13;;;;;;;0.00;0.00;;;;;;;5.82;100.00;98068.94;5053012;28;20750;-54
2024/01/06 06:39:00;;;;;;;0.10;0.10;;;;;;;5.54;100.00;98070.63;5052743;28;20204;-53
2024/01/06 06:41:47;;;;;;;0.00;0.00;;;;;;;5.56;100.00;98068.75;5050835;28;20208;-53
2024/01/06 06:44:33;;;;;;;0.00;0.00;;;;;;;5.67;100.00;98074.16;5042582;28;20200;-54
2024/01/06 06:47:20;;;;;;;0.00;0.00;;;;;;;5.65;100.00;98077.84;5052688;28;20208;-54
2024/01/06 06:50:11;;;;;;;0.10;0.10;;;;;;;5.79;100.00;98084.84;5052714;28;20192;-53
2024/01/06 06:53:00;;;;;;;0.00;0.00;;;;;;;5.83;100.00;98075.88;5065938;28;20199;-54
2024/01/06 06:55:51;;;;;;;0.10;0.10;;;;;;;5.73;100.00;98088.72;5050636;28;20195;-54
2024/01/06 06:58:38;;;;;;;0.00;0.00;;;;;;;5.70;100.00;98086.28;5044819;28;20231;-54
2024/01/06 07:01:25;;;;;;;0.00;0.00;;;;;;;5.75;100.00;98098.19;5032903;28;20188;-54
2024/01/06 07:04:11;;;;;;;0.00;0.00;;;;;;;5.68;100.00;98117.88;5032739;28;20201;-54
2024/01/06 07:07:00;;;;;;;0.00;0.00;;;;;;;5.66;100.00;98117.13;5034967;28;20196;-54
2024/01/06 07:09:47;;;;;;;0.10;0.10;;;;;;;5.78;100.00;98117.31;5049360;28;20227;-53
2024/01/06 07:12:34;;;;;;;0.00;0.00;;;;;;;5.83;100.00;98117.91;5052412;28;20192;-53
2024/01/06 07:15:21;;;;;;;0.00;0.00;;;;;;;5.82;100.00;98119.69;5052763;28;20271;-54
2024/01/06 07:18:09;;;;;;;0.00;0.00;;;;;;;5.77;100.00;98126.16;5052162;28;20316;-54
2024/01/06 07:20:56;;;;;;;0.10;0.10;;;;;;;5.71;100.00;98141.38;5052516;28;20204;-53
2024/01/06 07:23:45;;;;;;;0.10;0.10;;;;;;;5.76;100.00;98141.06;5052279;28;20224;-54
2024/01/06 07:26:32;;;;;;;0.00;0.00;;;;;;;5.80;100.00;98145.22;5051635;28;20196;-53
2024/01/06 07:29:19;;;;;;;0.00;0.00;;;;;;;6.00;100.00;98142.25;5051608;28;20196;-54
2024/01/06 07:32:07;;;;;;;0.00;0.00;;;;;;;5.93;100.00;98145.34;5052521;28;20197;-54
2024/01/06 07:34:54;;;;;;;0.00;0.00;;;;;;;5.90;100.00;98148.13;5052280;28;20226;-54
2024/01/06 07:37:41;;;;;;;0.00;0.00;;;;;;;6.20;100.00;98141.00;5052428;28;20623;-54
2024/01/06 07:40:29;;;;;;;0.00;0.00;;;;;;;6.12;100.00;98145.88;5031549;28;20193;-53
2024/01/06 07:43:16;;;;;;;0.00;0.00;;;;;;;6.02;100.00;98148.25;5032317;28;20307;-54
2024/01/06 07:46:03;;;;;;;0.00;0.00;;;;;;;6.07;100.00;98150.56;5047882;28;20303;-54
2024/01/06 07:48:50;;;;;;;0.10;0.10;;;;;;;6.05;100.00;98157.72;5052020;28;20243;-53
2024/01/06 07:51:36;;;;;;;0.10;0.10;;;;;;;6.06;100.00;98156.75;5052477;28;20200;-54
2024/01/06 07:54:23;;;;;;;0.00;0.00;;;;;;;6.24;100.00;98162.66;5055833;28;20191;-54
2024/01/06 07:57:13;;;;;;;0.00;0.00;;;;;;;6.26;100.00;98166.88;5054729;28;20298;-54
2024/01/06 08:00:00;;;;;;;0.00;0.00;;;;;;;6.15;100.00;98177.22;5056021;28;20197;-54
2024/01/06 08:02:57;;;;;;;0.00;0.00;;;;;;;6.19;100.00;98180.53;5055596;28;20231;-53
2024/01/06 08:05:44;;;;;;;0.10;0.10;;;;;;;6.16;100.00;98180.69;5055726;28;20207;-53
2024/01/06 08:08:31;;;;;;;0.00;0.00;;;;;;;6.41;100.00;98180.88;5055708;28;20208;-54
2024/01/06 08:11:18;;;;;;;0.10;0.10;;;;;;;6.36;100.00;98185.56;5054591;28;20193;-54
2024/01/06 08:14:07;;;;;;;0.10;0.10;;;;;;;6.16;100.00;98194.69;5055663;28;20316;-54
2024/01/06 08:16:54;;;;;;;0.10;0.10;;;;;;;6.46;100.00;98193.72;5068085;28;20323;-54
2024/01/06 08:19:41;;;;;;;0.10;0.10;;;;;;;6.08;100.00;98193.47;5042327;28;20201;-53
2024/01/06 08:22:28;;;;;;;0.00;0.00;;;;;;;5.99;100.00;98201.00;5035551;28;20259;-54
2024/01/06 08:25:17;;;;;;;0.00;0.00;;;;;;;6.23;100.00;98206.53;5050231;28;20200;-54
2024/01/06 08:28:04;;;;;;;0.00;0.00;;;;;;;6.21;100.00;98211.03;5055333;28;20682;-53
2024/01/06 08:30:52;;;;;;;0.00;0.00;;;;;;;6.27;100.00;98217.69;5035531;28;20201;-53
2024/01/06 08:33:39;;;;;;;0.00;0.00;;;;;;;6.40;100.00;98213.38;5035480;28;20208;-53
2024/01/06 08:36:26;;;;;;;0.00;0.00;;;;;;;6.14;100.00;98224.66;5047863;28;20216;-54
2024/01/06 08:39:13;;;;;;;0.00;0.00;;;;;;;6.22;100.00;98225.88;5055054;28;20208;-53
2024/01/06 08:42:01;;;;;;;0.10;0.10;;;;;;;6.44;100.00;98214.84;5054296;28;20192;-53
2024/01/06 08:44:48;;;;;;;0.00;0.00;;;;;;;6.34;100.00;98226.91;5054188;28;20291;-54
2024/01/06 08:47:36;;;;;;;0.00;0.00;;;;;;;6.26;100.00;98224.72;5055037;28;20259;-53
2024/01/06 08:50:23;;;;;;;0.00;0.00;;;;;;;6.28;100.00;98229.91;5054597;28;20192;-53
2024/01/06 08:53:10;;;;;;;0.00;0.00;;;;;;;6.51;100.00;98237.22;5055010;28;20196;-53
2024/01/06 08:55:57;;;;;;;0.07;0.07;;;;;;;6.30;100.00;98244.66;5054043;28;20196;-53
2024/01/06 08:58:43;;;;;;;0.00;0.00;;;;;;;6.45;100.00;98244.63;5049116;28;20239;-53
2024/01/06 09:01:31;;;;;;;0.00;0.00;;;;;;;6.22;100.00;98249.53;5047691;28;20200;-54
2024/01/06 09:04:19;;;;;;;0.00;0.00;;;;;;;6.00;100.00;98260.50;5053668;28;20335;-53
2024/01/06 09:07:06;;;;;;;0.10;0.10;;;;;;;5.84;100.00;98258.84;5054703;28;20205;-53
2024/01/06 09:09:53;;;;;;;0.10;0.10;;;;;;;6.19;100.00;98264.66;5053804;28;20216;-54
2024/01/06 09:12:40;;;;;;;0.00;0.00;;;;;;;6.20;100.00;98267.19;5049496;28;20308;-53
2024/01/06 09:15:27;;;;;;;0.00;0.00;;;;;;;6.19;100.00;98268.13;5042544;28;20192;-54
2024/01/06 09:18:14;;;;;;;0.10;0.10;;;;;;;6.25;100.00;98275.63;5054044;28;20199;-54
2024/01/06 09:21:03;;;;;;;0.10;0.10;;;;;;;6.32;100.00;98265.59;5034570;28;20264;-53
2024/01/06 09:23:49;;;;;;;0.00;0.00;;;;;;;6.33;100.00;98272.53;5037085;28;20212;-54
2024/01/06 09:26:36;;;;;;;0.00;0.00;;;;;;;6.56;100.00;98274.63;5052054;28;20682;-54
2024/01/06 09:29:23;;;;;;;0.00;0.00;;;;;;;6.58;100.00;98279.78;5054233;28;20211;-53
2024/01/06 09:32:10;;;;;;;0.00;0.00;;;;;;;6.49;100.00;98281.19;5053393;28;20196;-54
2024/01/06 09:34:57;;;;;;;0.00;0.00;;;;;;;6.45;100.00;98277.03;5047759;28;20193;-53
2024/01/06 09:37:45;;;;;;;0.00;0.00;;;;;;;6.27;100.00;98279.03;5052163;28;20677;-54
2024/01/06 09:40:33;;;;;;;0.00;0.00;;;;;;;6.38;100.00;98282.78;5051043;28;20200;-53
2024/01/06 09:43:20;;;;;;;0.07;0.07;;;;;;;6.63;100.00;98290.00;5051012;28;20212;-53
2024/01/06 09:46:12;;;;;;;0.00;0.00;;;;;;;6.51;100.00;98286.34;5050837;28;20312;-53
2024/01/06 09:49:01;;;;;;;0.00;0.00;;;;;;;6.40;100.00;98294.91;5053023;28;20200;-53
2024/01/06 09:52:01;;;;;;;0.00;0.00;;;;;;;6.46;100.00;98301.56;5053012;28;20200;-53
2024/01/06 09:55:00;;;;;;;0.00;0.00;;;;;;;6.70;100.00;98297.44;5051688;28;20192;-54
2024/01/06 09:57:48;;;;;;;0.00;0.00;;;;;;;6.45;100.00;98294.59;5052524;28;20224;-53
2024/01/06 10:00:37;;;;;;;0.00;0.00;;;;;;;6.40;100.00;98307.22;5050553;28;20204;-53
2024/01/06 10:03:26;;;;;;;0.00;0.00;;;;;;;6.30;100.00;98299.88;5037161;28;20250;-53
2024/01/06 10:06:15;;;;;;;0.00;0.00;;;;;;;6.23;100.00;98293.28;5026728;28;20359;-54
2024/01/06 10:09:05;;;;;;;0.03;0.03;;;;;;;6.36;100.00;98301.28;5036003;28;20212;-53
2024/01/06 10:11:59;;;;;;;0.00;0.00;;;;;;;6.38;100.00;98304.69;4996487;28;20444;-54
2024/01/06 10:14:47;;;;;;;0.00;0.00;;;;;;;6.40;100.00;98302.78;5012851;28;20248;-53
2024/01/06 10:17:33;;;;;;;0.00;0.00;;;;;;;6.53;100.00;98311.63;5012970;28;20210;-54
2024/01/06 10:20:23;;;;;;;0.00;0.00;;;;;;;6.44;100.00;98308.69;5029189;28;20252;-53
2024/01/06 10:23:16;;;;;;;0.00;0.00;;;;;;;6.50;100.00;98314.44;5032026;28;20276;-54
2024/01/06 10:26:05;;;;;;;0.00;0.00;;;;;;;6.35;100.00;98319.78;5016612;28;20248;-53
2024/01/06 10:28:53;;;;;;;0.00;0.00;;;;;;;6.61;100.00;98319.03;5032118;28;20212;-53
2024/01/06 10:31:39;;;;;;;0.00;0.00;;;;;;;6.48;100.00;98320.75;5030615;28;20196;-53
2024/01/06 10:34:27;;;;;;;0.00;0.00;;;;;;;6.52;100.00;98328.34;5032172;28;20196;-54
2024/01/06 10:37:14;;;;;;;0.10;0.10;;;;;;;6.65;100.00;98333.69;5031876;28;20196;-54
2024/01/06 10:40:11;;;;;;;0.00;0.00;;;;;;;6.57;100.00;98317.56;5030273;28;20287;-54
2024/01/06 10:42:58;;;;;;;0.00;0.00;;;;;;;6.78;100.00;98321.47;5032340;28;20280;-54
2024/01/06 10:45:47;;;;;;;0.00;0.00;;;;;;;6.77;100.00;98324.22;5031398;28;20216;-53
2024/01/06 10:48:38;;;;;;;0.00;0.00;;;;;;;6.80;100.00;98321.38;5032791;28;20220;-54
2024/01/06 10:51:29;;;;;;;0.00;0.00;;;;;;;6.77;100.00;98327.69;5033223;28;20193;-53
2024/01/06 10:54:16;;;;;;;0.00;0.00;;;;;;;6.82;100.00;98333.50;5032705;28;20189;-54
2024/01/06 10:57:05;;;;;;;0.00;0.00;;;;;;;6.55;100.00;98337.81;5030836;28;20438;-54
2024/01/06 10:59:53;;;;;;;0.00;0.00;;;;;;;6.68;100.00;98340.56;5032533;28;20200;-54
2024/01/06 11:02:43;;;;;;;0.00;0.00;;;;;;;6.64;100.00;98339.91;5032237;28;20205;-53
2024/01/06 11:05:30;;;;;;;0.00;0.00;;;;;;;6.39;100.00;98342.34;5032463;28;20224;-53
2024/01/06 11:08:19;;;;;;;0.00;0.00;;;;;;;6.64;100.00;98342.53;5024124;28;20197;-53
2024/01/06 11:11:06;;;;;;;0.00;0.00;;;;;;;6.87;100.00;98336.72;5029665;28;20223;-54
2024/01/06 11:13:54;;;;;;;0.10;0.10;;;;;;;6.63;100.00;98324.22;5032406;28;20208;-53
2024/01/06 11:16:43;;;;;;;0.00;0.00;;;;;;;6.60;100.00;98331.34;5032204;28;20271;-54
2024/01/06 11:19:47;;;;;;;0.00;0.00;;;;;;;6.39;100.00;98326.56;5032516;28;20220;-54
2024/01/06 11:22:39;;;;;;;0.00;0.00;;;;;;;6.54;100.00;98323.81;5032520;28;20196;-53
2024/01/06 11:25:30;;;;;;;0.00;0.00;;;;;;;6.68;100.00;98324.78;5030290;28;20236;-53
2024/01/06 11:28:18;;;;;;;0.10;0.10;;;;;;;6.73;100.00;98331.44;5034436;28;20320;-53
2024/01/06 11:31:10;;;;;;;0.00;0.00;;;;;;;6.82;100.00;98324.75;5001858;28;20197;-53
2024/01/06 11:33:57;;;;;;;0.00;0.00;;;;;;;6.69;100.00;98319.41;5016739;28;20197;-53
2024/01/06 11:36:46;;;;;;;0.00;0.00;;;;;;;6.52;100.00;98322.22;5016575;28;20271;-53
2024/01/06 11:39:38;;;;;;;0.03;0.03;;;;;;;6.80;100.00;98324.00;5025121;28;20193;-54
2024/01/06 11:42:39;;;;;;;0.07;0.07;;;;;;;6.71;100.00;98327.22;5036179;28;20691;-54
2024/01/06 11:45:27;;;;;;;0.00;0.00;;;;;;;6.71;100.00;98328.06;5020888;28;20216;-53
2024/01/06 11:48:14;;;;;;;0.00;0.00;;;;;;;6.79;100.00;98319.69;5035827;28;20204;-53
2024/01/06 11:51:04;;;;;;;0.00;0.00;;;;;;;7.08;100.00;98318.72;5016313;28;20205;-54
2024/01/06 11:53:55;;;;;;;0.00;0.00;;;;;;;7.10;100.00;98321.25;5024743;28;20304;-54
2024/01/06 11:56:43;;;;;;;0.00;0.00;;;;;;;7.07;100.00;98322.28;5033864;28;20209;-54
2024/01/06 11:59:30;;;;;;;0.10;0.10;;;;;;;6.88;100.00;98319.13;5024159;28;20312;-54
2024/01/06 12:02:18;;;;;;;0.00;0.00;;;;;;;6.95;100.00;98323.06;5035640;28;20209;-54
2024/01/06 12:05:06;;;;;;;0.00;0.00;;;;;;;6.85;100.00;98316.66;5035109;28;20264;-54
2024/01/06 12:07:58;;;;;;;0.00;0.00;;;;;;;7.06;100.00;98327.66;5035207;28;20296;-53
2024/01/06 12:10:46;;;;;;;0.10;0.10;;;;;;;7.05;100.00;98320.72;5032040;28;20186;-54
2024/01/06 12:13:33;;;;;;;0.10;0.10;;;;;;;7.18;100.00;98313.72;5020960;28;20333;-54
2024/01/06 12:16:20;;;;;;;0.00;0.00;;;;;;;7.39;100.00;98314.13;5035617;28;20185;-53
2024/01/06 12:19:07;;;;;;;0.00;0.00;;;;;;;7.20;100.00;98306.56;5035509;28;20197;-53
2024/01/06 12:21:54;;;;;;;0.00;0.00;;;;;;;7.14;100.00;98315.72;5035743;28;20279;-53
2024/01/06 12:24:42;;;;;;;0.03;0.03;;;;;;;7.09;100.00;98317.78;5035344;28;20240;-53
2024/01/06 12:27:31;;;;;;;0.00;0.00;;;;;;;7.07;100.00;98313.56;5035552;28;20259;-53
2024/01/06 12:30:20;;;;;;;0.00;0.00;;;;;;;7.26;100.00;98314.06;5035563;28;20269;-53
2024/01/06 12:33:07;;;;;;;0.00;0.00;;;;;;;6.80;100.00;98319.59;5035343;28;20674;-53
2024/01/06 12:35:54;;;;;;;0.00;0.00;;;;;;;7.22;100.00;98314.34;5035355;28;20686;-53
2024/01/06 12:38:43;;;;;;;0.07;0.07;;;;;;;7.24;100.00;98312.44;5034052;28;20309;-54
2024/01/06 12:41:30;;;;;;;0.00;0.00;;;;;;;7.05;100.00;98303.13;5022746;28;20189;-53
2024/01/06 12:44:18;;;;;;;0.00;0.00;;;;;;;7.07;100.00;98317.03;5034407;28;20204;-53
2024/01/06 12:47:05;;;;;;;0.00;0.00;;;;;;;7.28;100.00;98317.44;5035192;28;20200;-53
2024/01/06 12:49:52;;;;;;;0.10;0.10;;;;;;;7.25;100.00;98322.06;5035019;28;20374;-53
2024/01/06 12:52:39;;;;;;;0.03;0.03;;;;;;;7.33;100.00;98317.13;5034949;28;20193;-53
2024/01/06 12:55:26;;;;;;;0.03;0.03;;;;;;;7.25;100.00;98328.19;5033745;28;20212;-53
2024/01/06 12:58:13;;;;;;;0.00;0.00;;;;;;;7.04;100.00;98324.25;5034496;28;20240;-53
2024/01/06 13:01:02;;;;;;;0.00;0.00;;;;;;;7.24;100.00;98323.00;5034471;28;20300;-53
2024/01/06 13:03:49;;;;;;;0.00;0.00;;;;;;;7.18;100.00;98333.00;5034687;28;20202;-54
2024/01/06 13:06:36;;;;;;;0.00;0.00;;;;;;;7.20;100.00;98335.53;5034482;28;20220;-53
2024/01/06 13:09:24;;;;;;;0.00;0.00;;;;;;;7.27;100.00;98341.25;5034570;28;20210;-53
2024/01/06 13:12:11;;;;;;;0.00;0.00;;;;;;;7.37;100.00;98343.19;5033882;28;20216;-54